Time;durP1;ratioP1;P1;durP2;ratioP2;P2;SDS_P1;SDS_P2;PMS_P1;PMS_P2;Temp;Humidity;BMP_temperature;BMP_pressure;BME280_temperature;BME280_humidity;BME280_pressure;Samples;Min_cycle;Max_cycle;Signal;HPM_P1;HPM_P2
2022/11/06 00:00:28;;;;;;;;;;;;;;;;;;5092654;28;19928;-51
2022/11/06 00:02:58;;;;;;;;;;;;;;;;;;5092585;28;19945;-53
2022/11/06 00:08:09;;;;;;;;;;;;;;;;;;5092070;28;20009;-54
2022/11/06 00:10:36;;;;;;;;;;;;;;;;;;5092308;28;19985;-52
2022/11/06 00:13:02;;;;;;;;;;;;;;;;;;5092758;28;19977;-54
2022/11/06 00:15:29;;;;;;;;;;;;;;;;;;5092396;28;19925;-52
2022/11/06 00:17:56;;;;;;;;;;;;;;;;;;5092001;28;19944;-53
2022/11/06 00:20:24;;;;;;;;;;;;;;;;;;5092635;28;19924;-55
2022/11/06 00:22:50;;;;;;;;;;;;;;;;;;5092351;28;19924;-55
2022/11/06 00:25:17;;;;;;;;;;;;;;;;;;5092063;28;19924;-52
2022/11/06 00:27:43;;;;;;;;;;;;;;;;;;5091585;28;19943;-54
2022/11/06 00:30:11;;;;;;;;;;;;;;;;;;5092063;28;19924;-54
2022/11/06 00:32:38;;;;;;;;;;;;;;;;;;5091949;28;19934;-56
2022/11/06 00:35:05;;;;;;;;;;;;;;;;;;5092054;28;20437;-52
2022/11/06 00:37:33;;;;;;;;;;;;;;;;;;5091292;28;19932;-55
2022/11/06 00:40:00;;;;;;;;;;;;;;;;;;5092046;28;19996;-54
2022/11/06 00:42:26;;;;;;;;;;;;;;;;;;5091992;28;20376;-54
2022/11/06 00:44:53;;;;;;;;;;;;;;;;;;5090957;28;20441;-55
2022/11/06 00:47:19;;;;;;;;;;;;;;;;;;5091359;28;19924;-51
2022/11/06 00:49:46;;;;;;;;;;;;;;;;;;5091580;28;19977;-56
2022/11/06 00:52:13;;;;;;;;;;;;;;;;;;5091833;28;19924;-55
2022/11/06 00:54:40;;;;;;;;;;;;;;;;;;5091860;28;19975;-53
2022/11/06 00:57:07;;;;;;;;;;;;;;;;;;5095438;28;19932;-53
2022/11/06 00:59:34;;;;;;;;;;;;;;;;;;5095535;28;19928;-56
2022/11/06 01:02:00;;;;;;;;;;;;;;;;;;5095240;28;19924;-52
2022/11/06 01:04:27;;;;;;;;;;;;;;;;;;5095459;28;19970;-53
2022/11/06 01:06:55;;;;;;;;;;;;;;;;;;5095156;28;19928;-55
2022/11/06 01:09:22;;;;;;;;;;;;;;;;;;5095216;28;19931;-51
2022/11/06 01:11:51;;;;;;;;;;;;;;;;;;5095209;28;19924;-56
2022/11/06 01:14:19;;;;;;;;;;;;;;;;;;5095659;28;19928;-55
2022/11/06 01:16:45;;;;;;;;;;;;;;;;;;5094888;28;19924;-55
2022/11/06 01:19:12;;;;;;;;;;;;;;;;;;5095024;28;19924;-51
2022/11/06 01:21:40;;;;;;;;;;;;;;;;;;5095669;28;19928;-52
2022/11/06 01:24:07;;;;;;;;;;;;;;;;;;5095005;28;19928;-52
2022/11/06 01:26:34;;;;;;;;;;;;;;;;;;5094282;28;19924;-53
2022/11/06 01:29:03;;;;;;;;;;;;;;;;;;5094967;28;19970;-50
2022/11/06 01:31:30;;;;;;;;;;;;;;;;;;5096419;28;20022;-50
2022/11/06 01:33:57;;;;;;;;;;;;;;;;;;5097309;28;20003;-51
2022/11/06 01:36:24;;;;;;;;;;;;;;;;;;5095083;28;19928;-52
2022/11/06 01:38:51;;;;;;;;;;;;;;;;;;5094777;28;19924;-57
2022/11/06 01:41:19;;;;;;;;;;;;;;;;;;5095249;28;19924;-57
2022/11/06 01:43:47;;;;;;;;;;;;;;;;;;5094669;28;19928;-56
2022/11/06 01:46:15;;;;;;;;;;;;;;;;;;5095011;28;20355;-55
2022/11/06 01:48:43;;;;;;;;;;;;;;;;;;5094914;28;20304;-55
2022/11/06 01:51:10;;;;;;;;;;;;;;;;;;5094611;28;19928;-54
2022/11/06 01:53:38;;;;;;;;;;;;;;;;;;5094864;28;20009;-55
2022/11/06 01:56:05;;;;;;;;;;;;;;;;;;5094889;28;19924;-57
2022/11/06 01:58:33;;;;;;;;;;;;;;;;;;5094547;28;19924;-56
2022/11/06 02:01:00;;;;;;;;;;;;;;;;;;5094270;28;19931;-58
2022/11/06 02:03:28;;;;;;;;;;;;;;;;;;5094697;28;20257;-57
2022/11/06 02:05:56;;;;;;;;;;;;;;;;;;5094486;28;19935;-52
2022/11/06 02:08:23;;;;;;;;;;;;;;;;;;5094280;28;19924;-58
2022/11/06 02:10:50;;;;;;;;;;;;;;;;;;5094514;28;19924;-58
2022/11/06 02:13:21;;;;;;;;;;;;;;;;;;5094343;28;19931;-58
2022/11/06 02:15:51;;;;;;;;;;;;;;;;;;5094174;28;19927;-58
2022/11/06 02:18:32;;;;;;;;;;;;;;;;;;5094470;28;19928;-55
2022/11/06 02:21:11;;;;;;;;;;;;;;;;;;5093188;28;19935;-58
2022/11/06 02:23:45;;;;;;;;;;;;;;;;;;5094152;28;20331;-58
2022/11/06 02:26:19;;;;;;;;;;;;;;;;;;5094261;28;20018;-55
2022/11/06 02:28:51;;;;;;;;;;;;;;;;;;5094432;28;19989;-57
2022/11/06 02:31:21;;;;;;;;;;;;;;;;;;5094159;28;20372;-56
2022/11/06 02:33:49;;;;;;;;;;;;;;;;;;5094029;28;19939;-56
2022/11/06 02:36:17;;;;;;;;;;;;;;;;;;5094119;28;20373;-56
2022/11/06 02:38:45;;;;;;;;;;;;;;;;;;5093970;28;19971;-56
2022/11/06 02:41:16;;;;;;;;;;;;;;;;;;5093962;28;19928;-57
2022/11/06 02:43:44;;;;;;;;;;;;;;;;;;5093468;28;19931;-58
2022/11/06 02:46:15;;;;;;;;;;;;;;;;;;5093771;28;19969;-57
2022/11/06 02:48:43;;;;;;;;;;;;;;;;;;5093913;28;19989;-58
2022/11/06 02:51:11;;;;;;;;;;;;;;;;;;5093607;28;19924;-55
2022/11/06 02:53:38;;;;;;;;;;;;;;;;;;5093386;28;19978;-55
2022/11/06 02:56:07;;;;;;;;;;;;;;;;;;5093521;28;19924;-55
2022/11/06 02:58:35;;;;;;;;;;;;;;;;;;5093777;28;19924;-57
2022/11/06 03:01:03;;;;;;;;;;;;;;;;;;5093375;28;19985;-58
2022/11/06 03:03:32;;;;;;;;;;;;;;;;;;5093418;28;20439;-58
2022/11/06 03:06:01;;;;;;;;;;;;;;;;;;5093040;28;19981;-57
2022/11/06 03:08:31;;;;;;;;;;;;;;;;;;5093123;28;19927;-55
2022/11/06 03:11:02;;;;;;;;;;;;;;;;;;5093485;28;19924;-58
2022/11/06 03:13:36;;;;;;;;;;;;;;;;;;5093279;28;20462;-53
2022/11/06 03:16:05;;;;;;;;;;;;;;;;;;5093158;28;19928;-57
2022/11/06 03:18:36;;;;;;;;;;;;;;;;;;5092537;28;20392;-57
2022/11/06 03:21:06;;;;;;;;;;;;;;;;;;5093240;28;19928;-57
2022/11/06 03:23:34;;;;;;;;;;;;;;;;;;5092732;28;19924;-55
2022/11/06 03:26:04;;;;;;;;;;;;;;;;;;5093031;28;19924;-57
2022/11/06 03:28:32;;;;;;;;;;;;;;;;;;5092981;28;19928;-58
2022/11/06 03:31:00;;;;;;;;;;;;;;;;;;5092906;28;19935;-57
2022/11/06 03:33:31;;;;;;;;;;;;;;;;;;5093100;28;19924;-57
2022/11/06 03:36:01;;;;;;;;;;;;;;;;;;5092587;28;19931;-56
2022/11/06 03:38:31;;;;;;;;;;;;;;;;;;5093040;28;19977;-57
2022/11/06 03:40:59;;;;;;;;;;;;;;;;;;5093009;28;19924;-56
2022/11/06 03:43:27;;;;;;;;;;;;;;;;;;5092780;28;20266;-57
2022/11/06 03:45:55;;;;;;;;;;;;;;;;;;5092472;28;19924;-57
2022/11/06 03:48:25;;;;;;;;;;;;;;;;;;5092787;28;20435;-54
2022/11/06 03:50:56;;;;;;;;;;;;;;;;;;5092528;28;19924;-55
2022/11/06 03:53:26;;;;;;;;;;;;;;;;;;5092574;28;19931;-53
2022/11/06 03:55:55;;;;;;;;;;;;;;;;;;5092558;28;20062;-55
2022/11/06 03:58:23;;;;;;;;;;;;;;;;;;5092873;28;19924;-55
2022/11/06 04:00:51;;;;;;;;;;;;;;;;;;5092610;28;19935;-54
2022/11/06 04:03:20;;;;;;;;;;;;;;;;;;5093049;28;19924;-53
2022/11/06 04:05:48;;;;;;;;;;;;;;;;;;5092745;28;20376;-51
2022/11/06 04:14:00;;;;;;;;;;;;;;;;;;5092490;28;19931;-56
2022/11/06 04:16:30;;;;;;;;;;;;;;;;;;5092733;28;20293;-54
2022/11/06 04:18:57;;;;;;;;;;;;;;;;;;5092509;28;20323;-51
2022/11/06 04:21:26;;;;;;;;;;;;;;;;;;5092716;28;19928;-51
2022/11/06 04:26:57;;;;;;;;;;;;;;;;;;5092314;28;19931;-55
2022/11/06 04:29:32;;;;;;;;;;;;;;;;;;5093839;28;20380;-51
2022/11/06 04:32:01;;;;;;;;;;;;;;;;;;5096716;28;19924;-53
2022/11/06 04:34:32;;;;;;;;;;;;;;;;;;5096346;28;19924;-55
2022/11/06 04:37:01;;;;;;;;;;;;;;;;;;5096594;28;20365;-53
2022/11/06 04:39:29;;;;;;;;;;;;;;;;;;5096359;28;20407;-52
2022/11/06 04:42:02;;;;;;;;;;;;;;;;;;5096571;28;19928;-52
2022/11/06 04:44:30;;;;;;;;;;;;;;;;;;5096505;28;19997;-54
2022/11/06 04:46:58;;;;;;;;;;;;;;;;;;5096891;28;19974;-55
2022/11/06 04:49:26;;;;;;;;;;;;;;;;;;5096072;28;19973;-53
2022/11/06 04:51:53;;;;;;;;;;;;;;;;;;5096032;28;19931;-52
2022/11/06 04:54:20;;;;;;;;;;;;;;;;;;5096159;28;19961;-52
2022/11/06 04:56:46;;;;;;;;;;;;;;;;;;5096254;28;19931;-55
2022/11/06 04:59:16;;;;;;;;;;;;;;;;;;5096123;28;20365;-53
2022/11/06 05:01:43;;;;;;;;;;;;;;;;;;5095932;28;19924;-55
2022/11/06 05:04:09;;;;;;;;;;;;;;;;;;5095657;28;19928;-55
2022/11/06 05:06:36;;;;;;;;;;;;;;;;;;5095474;28;19924;-52
2022/11/06 05:09:02;;;;;;;;;;;;;;;;;;5095806;28;19973;-54
2022/11/06 05:11:29;;;;;;;;;;;;;;;;;;5095962;28;19928;-52
2022/11/06 05:13:55;;;;;;;;;;;;;;;;;;5095861;28;20420;-55
2022/11/06 05:16:23;;;;;;;;;;;;;;;;;;5095620;28;19947;-53
2022/11/06 05:18:50;;;;;;;;;;;;;;;;;;5095785;28;19970;-52
2022/11/06 05:24:00;;;;;;;;;;;;;;;;;;5095474;28;20462;-55
2022/11/06 05:26:27;;;;;;;;;;;;;;;;;;5095565;28;19924;-53
2022/11/06 05:28:53;;;;;;;;;;;;;;;;;;5095587;28;19928;-55
2022/11/06 05:31:20;;;;;;;;;;;;;;;;;;5095451;28;19928;-54
2022/11/06 05:33:48;;;;;;;;;;;;;;;;;;5095472;28;19924;-52
2022/11/06 05:36:14;;;;;;;;;;;;;;;;;;5094983;28;19924;-52
2022/11/06 05:38:41;;;;;;;;;;;;;;;;;;5095210;28;19924;-53
2022/11/06 05:41:08;;;;;;;;;;;;;;;;;;5094649;28;20387;-52
2022/11/06 05:43:34;;;;;;;;;;;;;;;;;;5094918;28;19924;-55
2022/11/06 05:46:01;;;;;;;;;;;;;;;;;;5094961;28;19924;-55
2022/11/06 05:48:27;;;;;;;;;;;;;;;;;;5095278;28;20288;-53
2022/11/06 05:50:59;;;;;;;;;;;;;;;;;;5095149;28;19924;-53
2022/11/06 05:53:26;;;;;;;;;;;;;;;;;;5095171;28;19946;-53
2022/11/06 05:55:52;;;;;;;;;;;;;;;;;;5094688;28;19925;-55
2022/11/06 05:58:19;;;;;;;;;;;;;;;;;;5094920;28;19924;-55
2022/11/06 06:00:45;;;;;;;;;;;;;;;;;;5094384;28;19924;-53
2022/11/06 06:03:12;;;;;;;;;;;;;;;;;;5094670;28;20273;-53
2022/11/06 06:05:38;;;;;;;;;;;;;;;;;;5094562;28;20369;-54
2022/11/06 06:08:06;;;;;;;;;;;;;;;;;;5094244;28;20353;-51
2022/11/06 06:10:33;;;;;;;;;;;;;;;;;;5094413;28;19928;-51
2022/11/06 06:12:59;;;;;;;;;;;;;;;;;;5094798;28;19993;-51
2022/11/06 06:15:26;;;;;;;;;;;;;;;;;;5093920;28;19936;-53
2022/11/06 06:17:52;;;;;;;;;;;;;;;;;;5093838;28;19924;-52
2022/11/06 06:20:19;;;;;;;;;;;;;;;;;;5094519;28;19928;-52
2022/11/06 06:22:52;;;;;;;;;;;;;;;;;;5094455;28;19971;-55
2022/11/06 06:25:20;;;;;;;;;;;;;;;;;;5094354;28;19928;-52
2022/11/06 06:27:47;;;;;;;;;;;;;;;;;;5094362;28;19988;-52
2022/11/06 06:30:14;;;;;;;;;;;;;;;;;;5094268;28;19936;-51
2022/11/06 06:32:40;;;;;;;;;;;;;;;;;;5094145;28;19975;-52
2022/11/06 06:35:07;;;;;;;;;;;;;;;;;;5093732;28;19932;-53
2022/11/06 06:37:34;;;;;;;;;;;;;;;;;;5093610;28;20010;-53
2022/11/06 06:40:00;;;;;;;;;;;;;;;;;;5093079;28;20274;-55
2022/11/06 06:42:29;;;;;;;;;;;;;;;;;;5093195;28;19928;-51
2022/11/06 06:44:55;;;;;;;;;;;;;;;;;;5092706;28;19949;-56
2022/11/06 06:47:22;;;;;;;;;;;;;;;;;;5092787;28;19931;-53
2022/11/06 06:49:48;;;;;;;;;;;;;;;;;;5093174;28;19931;-53
2022/11/06 06:52:15;;;;;;;;;;;;;;;;;;5092554;28;19924;-54
2022/11/06 06:54:42;;;;;;;;;;;;;;;;;;5093050;28;19928;-53
2022/11/06 06:57:08;;;;;;;;;;;;;;;;;;5093372;28;19924;-51
2022/11/06 06:59:36;;;;;;;;;;;;;;;;;;5093060;28;19977;-54
2022/11/06 07:02:03;;;;;;;;;;;;;;;;;;5092899;28;19928;-53
2022/11/06 07:04:30;;;;;;;;;;;;;;;;;;5077800;28;20320;-53
2022/11/06 07:06:56;;;;;;;;;;;;;;;;;;5072606;28;19977;-56
2022/11/06 07:09:23;;;;;;;;;;;;;;;;;;5072778;28;19929;-55
2022/11/06 07:11:49;;;;;;;;;;;;;;;;;;5089058;28;19924;-54
2022/11/06 07:14:16;;;;;;;;;;;;;;;;;;5093318;28;19928;-54
2022/11/06 07:16:44;;;;;;;;;;;;;;;;;;5092871;28;20375;-55
2022/11/06 07:19:11;;;;;;;;;;;;;;;;;;5092998;28;20233;-53
2022/11/06 07:21:37;;;;;;;;;;;;;;;;;;5092785;28;19928;-55
2022/11/06 07:24:04;;;;;;;;;;;;;;;;;;5092967;28;20385;-54
2022/11/06 07:26:31;;;;;;;;;;;;;;;;;;5092724;28;20407;-54
2022/11/06 07:28:57;;;;;;;;;;;;;;;;;;5092995;28;20003;-54
2022/11/06 07:31:24;;;;;;;;;;;;;;;;;;5092749;28;19924;-52
2022/11/06 07:33:52;;;;;;;;;;;;;;;;;;5092856;28;19928;-55
2022/11/06 07:36:18;;;;;;;;;;;;;;;;;;5092529;28;19924;-54
2022/11/06 07:38:45;;;;;;;;;;;;;;;;;;5092602;28;19993;-54
2022/11/06 07:41:12;;;;;;;;;;;;;;;;;;5092278;28;19931;-55
2022/11/06 07:43:39;;;;;;;;;;;;;;;;;;5092877;28;19932;-54
2022/11/06 07:46:06;;;;;;;;;;;;;;;;;;5092308;28;19924;-53
2022/11/06 07:48:33;;;;;;;;;;;;;;;;;;5092659;28;19924;-54
2022/11/06 07:51:03;;;;;;;;;;;;;;;;;;5092468;28;19931;-54
2022/11/06 07:53:30;;;;;;;;;;;;;;;;;;5092468;28;19954;-52
2022/11/06 07:55:57;;;;;;;;;;;;;;;;;;5092632;28;19981;-52
2022/11/06 07:58:24;;;;;;;;;;;;;;;;;;5092343;28;19928;-54
2022/11/06 08:00:51;;;;;;;;;;;;;;;;;;5092580;28;19997;-54
2022/11/06 08:03:18;;;;;;;;;;;;;;;;;;5092209;28;19924;-51
2022/11/06 08:05:44;;;;;;;;;;;;;;;;;;5091915;28;19992;-54
2022/11/06 08:08:12;;;;;;;;;;;;;;;;;;5092132;28;20490;-54
2022/11/06 08:10:42;;;;;;;;;;;;;;;;;;5092541;28;19933;-55
2022/11/06 08:13:09;;;;;;;;;;;;;;;;;;5091710;28;19957;-53
2022/11/06 08:15:37;;;;;;;;;;;;;;;;;;5092202;28;19927;-55
2022/11/06 08:18:03;;;;;;;;;;;;;;;;;;5091858;28;19924;-54
2022/11/06 08:20:30;;;;;;;;;;;;;;;;;;5092933;28;20030;-55
2022/11/06 08:22:58;;;;;;;;;;;;;;;;;;5091880;28;19977;-53
2022/11/06 08:25:26;;;;;;;;;;;;;;;;;;5092345;28;20327;-51
2022/11/06 08:27:54;;;;;;;;;;;;;;;;;;5091978;28;19947;-54
2022/11/06 08:30:21;;;;;;;;;;;;;;;;;;5092376;28;19943;-55
2022/11/06 08:32:47;;;;;;;;;;;;;;;;;;5092166;28;19931;-54
2022/11/06 08:35:14;;;;;;;;;;;;;;;;;;5093078;28;19924;-54
2022/11/06 08:37:41;;;;;;;;;;;;;;;;;;5093156;28;19928;-56
2022/11/06 08:40:08;;;;;;;;;;;;;;;;;;5093051;28;19978;-55
2022/11/06 08:42:36;;;;;;;;;;;;;;;;;;5092958;28;20286;-53
2022/11/06 08:45:03;;;;;;;;;;;;;;;;;;5092717;28;20285;-56
2022/11/06 08:47:30;;;;;;;;;;;;;;;;;;5092613;28;19924;-54
2022/11/06 08:49:56;;;;;;;;;;;;;;;;;;5092846;28;20296;-54
2022/11/06 08:52:23;;;;;;;;;;;;;;;;;;5091859;28;20346;-56
2022/11/06 08:54:49;;;;;;;;;;;;;;;;;;5091698;28;19924;-50
2022/11/06 08:57:16;;;;;;;;;;;;;;;;;;5092035;28;20404;-51
2022/11/06 08:59:44;;;;;;;;;;;;;;;;;;5092520;28;20041;-56
2022/11/06 09:02:12;;;;;;;;;;;;;;;;;;5092229;28;19953;-56
2022/11/06 09:04:41;;;;;;;;;;;;;;;;;;5092049;28;20359;-54
2022/11/06 09:07:08;;;;;;;;;;;;;;;;;;5091921;28;19924;-54
2022/11/06 09:09:34;;;;;;;;;;;;;;;;;;5092105;28;19931;-53
2022/11/06 09:12:02;;;;;;;;;;;;;;;;;;5091803;28;19928;-51
2022/11/06 09:14:29;;;;;;;;;;;;;;;;;;5091540;28;19931;-51
2022/11/06 09:16:58;;;;;;;;;;;;;;;;;;5093545;28;19928;-54
2022/11/06 09:19:24;;;;;;;;;;;;;;;;;;5095130;28;19924;-51
2022/11/06 09:21:51;;;;;;;;;;;;;;;;;;5095034;28;19928;-53
2022/11/06 09:24:17;;;;;;;;;;;;;;;;;;5095195;28;19924;-50
2022/11/06 09:26:44;;;;;;;;;;;;;;;;;;5095335;28;19925;-53
2022/11/06 09:29:11;;;;;;;;;;;;;;;;;;5094957;28;20305;-53
2022/11/06 09:31:37;;;;;;;;;;;;;;;;;;5095257;28;19924;-54
2022/11/06 09:34:05;;;;;;;;;;;;;;;;;;5095140;28;19960;-54
2022/11/06 09:36:32;;;;;;;;;;;;;;;;;;5094841;28;20420;-54
2022/11/06 09:38:58;;;;;;;;;;;;;;;;;;5094902;28;19924;-57
2022/11/06 09:41:28;;;;;;;;;;;;;;;;;;5094835;28;19931;-52
2022/11/06 09:44:02;;;;;;;;;;;;;;;;;;5094809;28;19924;-54
2022/11/06 09:46:30;;;;;;;;;;;;;;;;;;5094591;28;19928;-54
2022/11/06 09:48:58;;;;;;;;;;;;;;;;;;5095210;28;20290;-54
2022/11/06 09:51:31;;;;;;;;;;;;;;;;;;5094376;28;19930;-55
2022/11/06 09:54:01;;;;;;;;;;;;;;;;;;5094344;28;19924;-54
2022/11/06 09:56:30;;;;;;;;;;;;;;;;;;5095395;28;19924;-58
2022/11/06 09:58:58;;;;;;;;;;;;;;;;;;5094774;28;20381;-52
2022/11/06 10:01:28;;;;;;;;;;;;;;;;;;5095597;28;19977;-53
2022/11/06 10:03:56;;;;;;;;;;;;;;;;;;5095253;28;19974;-51
2022/11/06 10:06:23;;;;;;;;;;;;;;;;;;5095211;28;19997;-52
2022/11/06 10:08:52;;;;;;;;;;;;;;;;;;5095637;28;20373;-54
2022/11/06 10:11:47;;;;;;;;;;;;;;;;;;5095581;28;19977;-53
2022/11/06 10:14:19;;;;;;;;;;;;;;;;;;5095559;28;19924;-53
2022/11/06 10:16:49;;;;;;;;;;;;;;;;;;5094974;28;19928;-51
2022/11/06 10:19:32;;;;;;;;;;;;;;;;;;5095413;28;19977;-50
2022/11/06 10:22:03;;;;;;;;;;;;;;;;;;5095784;28;20000;-51
2022/11/06 10:24:34;;;;;;;;;;;;;;;;;;5095737;28;19924;-54
2022/11/06 10:27:04;;;;;;;;;;;;;;;;;;5094962;28;19924;-52
2022/11/06 10:29:38;;;;;;;;;;;;;;;;;;5095134;28;19924;-53
2022/11/06 10:32:12;;;;;;;;;;;;;;;;;;5095121;28;19927;-57
2022/11/06 10:34:41;;;;;;;;;;;;;;;;;;5094964;28;20392;-55
2022/11/06 10:37:10;;;;;;;;;;;;;;;;;;5095445;28;20365;-52
2022/11/06 10:39:38;;;;;;;;;;;;;;;;;;5095286;28;19924;-52
2022/11/06 10:42:07;;;;;;;;;;;;;;;;;;5094978;28;19928;-52
2022/11/06 10:44:37;;;;;;;;;;;;;;;;;;5094598;28;19924;-51
2022/11/06 10:47:06;;;;;;;;;;;;;;;;;;5093916;28;19932;-55
2022/11/06 10:49:36;;;;;;;;;;;;;;;;;;5094984;28;19928;-52
2022/11/06 10:52:10;;;;;;;;;;;;;;;;;;5095443;28;19928;-51
2022/11/06 10:54:46;;;;;;;;;;;;;;;;;;5094871;28;20326;-52
2022/11/06 10:57:19;;;;;;;;;;;;;;;;;;5094723;28;19951;-53
2022/11/06 10:59:47;;;;;;;;;;;;;;;;;;5094524;28;19924;-51
2022/11/06 11:02:21;;;;;;;;;;;;;;;;;;5094823;28;20413;-53
2022/11/06 11:04:48;;;;;;;;;;;;;;;;;;5094181;28;19924;-52
2022/11/06 11:07:14;;;;;;;;;;;;;;;;;;5093836;28;19931;-52
2022/11/06 11:09:44;;;;;;;;;;;;;;;;;;5094884;28;19928;-52
2022/11/06 11:12:19;;;;;;;;;;;;;;;;;;5094789;28;19987;-53
2022/11/06 11:15:03;;;;;;;;;;;;;;;;;;5094456;28;19985;-54
2022/11/06 11:17:30;;;;;;;;;;;;;;;;;;5094192;28;19931;-55
2022/11/06 11:19:57;;;;;;;;;;;;;;;;;;5095070;28;19931;-52
2022/11/06 11:22:24;;;;;;;;;;;;;;;;;;5098086;28;19935;-66
2022/11/06 11:25:00;;;;;;;;;;;;;;;;;;5098486;28;19963;-65
2022/11/06 11:27:27;;;;;;;;;;;;;;;;;;5095889;28;19978;-62
2022/11/06 11:29:54;;;;;;;;;;;;;;;;;;5097507;28;19993;-66
2022/11/06 11:32:21;;;;;;;;;;;;;;;;;;5100123;28;19924;-64
2022/11/06 11:34:50;;;;;;;;;;;;;;;;;;5094719;28;19932;-55
2022/11/06 11:37:23;;;;;;;;;;;;;;;;;;5093757;28;20452;-55
2022/11/06 11:39:49;;;;;;;;;;;;;;;;;;5091069;28;20443;-55
2022/11/06 11:42:21;;;;;;;;;;;;;;;;;;5093397;28;19931;-51
2022/11/06 11:45:05;;;;;;;;;;;;;;;;;;5094202;28;19928;-52
2022/11/06 11:47:32;;;;;;;;;;;;;;;;;;5093925;28;19925;-54
2022/11/06 11:50:15;;;;;;;;;;;;;;;;;;5094067;28;19924;-53
2022/11/06 11:52:43;;;;;;;;;;;;;;;;;;5094351;28;19932;-51
2022/11/06 11:55:14;;;;;;;;;;;;;;;;;;5093390;28;19924;-56
2022/11/06 11:57:44;;;;;;;;;;;;;;;;;;5093720;28;20292;-51
2022/11/06 12:00:14;;;;;;;;;;;;;;;;;;5089205;28;19993;-53
2022/11/06 12:02:43;;;;;;;;;;;;;;;;;;5092746;28;19988;-51
2022/11/06 12:05:12;;;;;;;;;;;;;;;;;;5091795;28;19931;-50
2022/11/06 12:07:47;;;;;;;;;;;;;;;;;;5092682;28;19924;-51
2022/11/06 12:10:19;;;;;;;;;;;;;;;;;;5093119;28;19928;-53
2022/11/06 12:12:49;;;;;;;;;;;;;;;;;;5093927;28;19924;-56
2022/11/06 12:15:21;;;;;;;;;;;;;;;;;;5093887;28;19928;-52
2022/11/06 12:17:51;;;;;;;;;;;;;;;;;;5089554;28;19928;-50
2022/11/06 12:20:19;;;;;;;;;;;;;;;;;;5093506;28;19924;-51
2022/11/06 12:22:47;;;;;;;;;;;;;;;;;;5090534;28;20335;-50
2022/11/06 12:25:16;;;;;;;;;;;;;;;;;;5093497;28;19927;-50
2022/11/06 12:27:44;;;;;;;;;;;;;;;;;;5093375;28;20262;-51
2022/11/06 12:30:14;;;;;;;;;;;;;;;;;;5094349;28;19975;-52
2022/11/06 12:32:45;;;;;;;;;;;;;;;;;;5093100;28;19939;-51
2022/11/06 12:35:17;;;;;;;;;;;;;;;;;;5093236;28;19928;-51
2022/11/06 12:37:49;;;;;;;;;;;;;;;;;;5101835;28;19928;-51
2022/11/06 12:40:20;;;;;;;;;;;;;;;;;;5111759;28;20325;-51
2022/11/06 12:42:52;;;;;;;;;;;;;;;;;;5093528;28;19978;-54
2022/11/06 12:45:20;;;;;;;;;;;;;;;;;;5100735;28;20376;-51
2022/11/06 12:47:50;;;;;;;;;;;;;;;;;;5096411;28;19928;-55
2022/11/06 12:50:22;;;;;;;;;;;;;;;;;;5105949;28;20335;-51
2022/11/06 12:53:06;;;;;;;;;;;;;;;;;;5106329;28;19924;-54
2022/11/06 12:55:34;;;;;;;;;;;;;;;;;;5096493;28;19924;-55
2022/11/06 12:58:10;;;;;;;;;;;;;;;;;;5076440;28;19924;-52
2022/11/06 13:00:46;;;;;;;;;;;;;;;;;;5076561;28;19924;-50
2022/11/06 13:03:28;;;;;;;;;;;;;;;;;;5081586;28;20005;-52
2022/11/06 13:05:58;;;;;;;;;;;;;;;;;;5112935;28;19973;-55
2022/11/06 13:08:29;;;;;;;;;;;;;;;;;;5116801;28;20003;-51
2022/11/06 13:11:01;;;;;;;;;;;;;;;;;;5101200;27;19935;-52
2022/11/06 13:13:34;;;;;;;;;;;;;;;;;;5096698;28;19939;-51
2022/11/06 13:16:07;;;;;;;;;;;;;;;;;;5095988;28;19924;-56
2022/11/06 13:18:35;;;;;;;;;;;;;;;;;;5078941;28;19935;-54
2022/11/06 13:21:06;;;;;;;;;;;;;;;;;;5079193;28;19924;-61
2022/11/06 13:23:35;;;;;;;;;;;;;;;;;;5092836;28;19931;-55
2022/11/06 13:26:04;;;;;;;;;;;;;;;;;;5097034;28;19932;-54
2022/11/06 13:28:33;;;;;;;;;;;;;;;;;;5097721;28;19928;-54
2022/11/06 13:31:04;;;;;;;;;;;;;;;;;;5095880;28;19928;-55
2022/11/06 13:33:34;;;;;;;;;;;;;;;;;;5095171;28;19931;-52
2022/11/06 13:36:01;;;;;;;;;;;;;;;;;;5095268;28;19932;-50
2022/11/06 13:38:28;;;;;;;;;;;;;;;;;;5094621;28;19924;-49
2022/11/06 13:40:57;;;;;;;;;;;;;;;;;;5094695;28;19927;-51
2022/11/06 13:43:26;;;;;;;;;;;;;;;;;;5095539;28;19928;-53
2022/11/06 13:45:56;;;;;;;;;;;;;;;;;;5094935;28;19924;-55
2022/11/06 13:48:29;;;;;;;;;;;;;;;;;;5095153;28;19931;-53
2022/11/06 13:50:58;;;;;;;;;;;;;;;;;;5095634;28;19928;-54
2022/11/06 13:53:31;;;;;;;;;;;;;;;;;;5095329;28;19947;-54
2022/11/06 13:56:05;;;;;;;;;;;;;;;;;;5095435;28;19928;-54
2022/11/06 13:58:49;;;;;;;;;;;;;;;;;;5095166;28;19924;-54
2022/11/06 14:01:25;;;;;;;;;;;;;;;;;;5090866;28;19928;-54
2022/11/06 14:04:12;;;;;;;;;;;;;;;;;;5084708;28;19924;-53
2022/11/06 14:06:39;;;;;;;;;;;;;;;;;;5074609;28;19931;-54
2022/11/06 14:09:09;;;;;;;;;;;;;;;;;;5074379;28;20314;-52
2022/11/06 14:11:36;;;;;;;;;;;;;;;;;;5074706;28;19932;-51
2022/11/06 14:14:04;;;;;;;;;;;;;;;;;;5074721;28;19977;-53
2022/11/06 14:16:32;;;;;;;;;;;;;;;;;;5074257;28;19928;-52
2022/11/06 14:19:01;;;;;;;;;;;;;;;;;;5074376;28;19993;-54
2022/11/06 14:21:49;;;;;;;;;;;;;;;;;;5074495;28;19924;-54
2022/11/06 14:24:27;;;;;;;;;;;;;;;;;;5074245;28;19924;-52
2022/11/06 14:26:54;;;;;;;;;;;;;;;;;;5073828;28;19976;-50
2022/11/06 14:29:43;;;;;;;;;;;;;;;;;;5074270;28;19928;-53
2022/11/06 14:32:10;;;;;;;;;;;;;;;;;;5074388;28;20270;-53
2022/11/06 14:34:38;;;;;;;;;;;;;;;;;;5074318;28;19924;-53
2022/11/06 14:37:23;;;;;;;;;;;;;;;;;;5073817;28;19978;-55
2022/11/06 14:40:04;;;;;;;;;;;;;;;;;;5074062;28;19924;-53
2022/11/06 14:42:32;;;;;;;;;;;;;;;;;;5073721;28;19929;-55
2022/11/06 14:45:02;;;;;;;;;;;;;;;;;;5074112;28;19931;-53
2022/11/06 14:47:31;;;;;;;;;;;;;;;;;;5073429;28;20015;-53
2022/11/06 14:50:00;;;;;;;;;;;;;;;;;;5074411;28;19924;-51
2022/11/06 14:52:27;;;;;;;;;;;;;;;;;;5073998;28;19924;-53
2022/11/06 14:54:56;;;;;;;;;;;;;;;;;;5073814;28;20198;-51
2022/11/06 14:57:39;;;;;;;;;;;;;;;;;;5073420;28;19925;-53
2022/11/06 15:00:06;;;;;;;;;;;;;;;;;;5073911;28;20282;-56
2022/11/06 15:02:34;;;;;;;;;;;;;;;;;;5073759;28;20270;-54
2022/11/06 15:05:03;;;;;;;;;;;;;;;;;;5093521;28;19924;-53
2022/11/06 15:07:34;;;;;;;;;;;;;;;;;;5093473;28;20293;-53
2022/11/06 15:10:00;;;;;;;;;;;;;;;;;;5093867;28;19977;-53
2022/11/06 15:12:47;;;;;;;;;;;;;;;;;;5091864;28;20168;-52
2022/11/06 15:15:19;;;;;;;;;;;;;;;;;;5093026;28;20466;-53
2022/11/06 15:17:46;;;;;;;;;;;;;;;;;;5093195;28;19938;-49
2022/11/06 15:20:20;;;;;;;;;;;;;;;;;;5093617;28;19939;-51
2022/11/06 15:22:50;;;;;;;;;;;;;;;;;;5093453;28;20018;-52
2022/11/06 15:25:21;;;;;;;;;;;;;;;;;;5093350;28;20217;-48
2022/11/06 15:27:51;;;;;;;;;;;;;;;;;;5092913;28;19935;-51
2022/11/06 15:30:20;;;;;;;;;;;;;;;;;;5093679;28;20304;-54
2022/11/06 15:32:48;;;;;;;;;;;;;;;;;;5093631;28;19924;-54
2022/11/06 15:35:19;;;;;;;;;;;;;;;;;;5093761;28;20427;-52
2022/11/06 15:37:46;;;;;;;;;;;;;;;;;;5093366;28;20355;-50
2022/11/06 15:40:23;;;;;;;;;;;;;;;;;;5093578;28;19924;-51
2022/11/06 15:42:50;;;;;;;;;;;;;;;;;;5093898;28;19932;-53
2022/11/06 15:45:22;;;;;;;;;;;;;;;;;;5093711;28;19924;-50
2022/11/06 15:47:53;;;;;;;;;;;;;;;;;;5093158;28;20074;-52
2022/11/06 15:50:20;;;;;;;;;;;;;;;;;;5093424;28;19924;-53
2022/11/06 15:52:47;;;;;;;;;;;;;;;;;;5093536;28;19924;-49
2022/11/06 15:55:14;;;;;;;;;;;;;;;;;;5092391;28;19950;-58
2022/11/06 15:57:41;;;;;;;;;;;;;;;;;;5093451;28;19924;-57
2022/11/06 16:00:09;;;;;;;;;;;;;;;;;;5093662;28;19931;-57
2022/11/06 16:02:47;;;;;;;;;;;;;;;;;;5093844;28;20310;-57
2022/11/06 16:05:14;;;;;;;;;;;;;;;;;;5073411;28;20445;-57
2022/11/06 16:07:42;;;;;;;;;;;;;;;;;;5072760;28;19924;-56
2022/11/06 16:10:13;;;;;;;;;;;;;;;;;;5073267;28;20008;-56
2022/11/06 16:12:39;;;;;;;;;;;;;;;;;;5072855;28;19994;-57
2022/11/06 16:15:06;;;;;;;;;;;;;;;;;;5073029;28;19925;-55
2022/11/06 16:17:33;;;;;;;;;;;;;;;;;;5072642;28;19946;-57
2022/11/06 16:20:02;;;;;;;;;;;;;;;;;;5073158;28;19960;-56
2022/11/06 16:22:30;;;;;;;;;;;;;;;;;;5072836;28;20015;-57
2022/11/06 16:24:58;;;;;;;;;;;;;;;;;;5073407;28;20010;-56
2022/11/06 16:27:26;;;;;;;;;;;;;;;;;;5076871;28;20494;-55
2022/11/06 16:29:55;;;;;;;;;;;;;;;;;;5076487;28;19932;-58
2022/11/06 16:32:23;;;;;;;;;;;;;;;;;;5076730;28;19932;-54
2022/11/06 16:34:50;;;;;;;;;;;;;;;;;;5076804;28;19924;-55
2022/11/06 16:37:44;;;;;;;;;;;;;;;;;;5076361;28;19974;-57
2022/11/06 16:40:29;;;;;;;;;;;;;;;;;;5062999;28;20435;-57
2022/11/06 16:43:03;;;;;;;;;;;;;;;;;;5075959;28;19978;-57
2022/11/06 16:45:30;;;;;;;;;;;;;;;;;;5075963;28;20017;-54
2022/11/06 16:48:14;;;;;;;;;;;;;;;;;;5075602;28;19928;-56
2022/11/06 16:50:44;;;;;;;;;;;;;;;;;;5072133;28;19925;-56
2022/11/06 16:53:12;;;;;;;;;;;;;;;;;;5075616;28;20006;-58
2022/11/06 16:55:40;;;;;;;;;;;;;;;;;;5075809;28;19931;-57
2022/11/06 16:58:14;;;;;;;;;;;;;;;;;;5075829;28;20402;-54
2022/11/06 17:00:40;;;;;;;;;;;;;;;;;;5075738;28;19924;-58
2022/11/06 17:03:08;;;;;;;;;;;;;;;;;;5079371;28;19928;-58
2022/11/06 17:05:36;;;;;;;;;;;;;;;;;;5096351;28;19951;-57
2022/11/06 17:08:06;;;;;;;;;;;;;;;;;;5095607;28;20297;-57
2022/11/06 17:10:38;;;;;;;;;;;;;;;;;;5096063;28;20015;-58
2022/11/06 17:13:14;;;;;;;;;;;;;;;;;;5095782;28;19978;-57